Terminal Aerodrome Forecast
Issued by NWS

Home | Current Version | Previous Version | Text Only | Print | Product List | Glossary On
Versions: 1 2 3 4 5 6 7 8 9 10 11 12
000
FTUS42 TJSJ 231730
TAFISX
TAF
TISX 231730Z 2318/2418 13010KT P6SM VCSH FEW021 SCT045
     FM232300 12004KT P6SM VCSH SCT022 SCT040
     FM240800 VRB03KT P6SM -SHRA BKN023 BKN030 OVC045 PROB30
      2410/2414 2SM +SHRA BKN018 OVC026=

USA.gov is the U.S. government's official web portal to all federal, state and local government web resources and services.